Time;durP1;ratioP1;P1;durP2;ratioP2;P2;SDS_P1;SDS_P2;PMS_P1;PMS_P2;Temp;Humidity;BMP_temperature;BMP_pressure;BME280_temperature;BME280_humidity;BME280_pressure;Samples;Min_cycle;Max_cycle;Signal;HPM_P1;HPM_P2
2024/02/23 00:00:35;;;;;;;0.20;0.20;;;;;;;;;;5027020;28;20046;-79
2024/02/23 00:03:01;;;;;;;0.10;0.00;;;;;;;;;;5021422;28;20110;-79
2024/02/23 00:05:27;;;;;;;0.25;0.10;;;;;;;;;;5021984;28;20083;-78
2024/02/23 00:07:53;;;;;;;0.43;0.30;;;;;;;;;;5019783;28;20033;-77
2024/02/23 00:10:20;;;;;;;0.10;0.10;;;;;;;;;;5022779;28;20036;-77
2024/02/23 00:12:47;;;;;;;0.38;0.25;;;;;;;;;;5022898;28;20388;-80
2024/02/23 00:15:13;;;;;;;0.63;0.10;;;;;;;;;;5030978;28;20038;-80
2024/02/23 00:17:39;;;;;;;0.10;0.10;;;;;;;;;;5020653;28;20022;-79
2024/02/23 00:20:06;;;;;;;0.00;0.00;;;;;;;;;;5038272;28;20076;-78
2024/02/23 00:22:33;;;;;;;0.13;0.13;;;;;;;;;;5045623;28;20436;-79
2024/02/23 00:25:00;;;;;;;0.20;0.20;;;;;;;;;;5025653;28;20022;-79
2024/02/23 00:27:26;;;;;;;0.10;0.10;;;;;;;;;;5041154;28;20041;-80
2024/02/23 00:29:52;;;;;;;0.17;0.00;;;;;;;;;;5039846;28;20030;-80
2024/02/23 00:32:18;;;;;;;0.10;0.10;;;;;;;;;;5014912;28;20068;-78
2024/02/23 00:34:44;;;;;;;0.10;0.00;;;;;;;;;;5027044;28;20021;-79
2024/02/23 00:37:10;;;;;;;1.38;0.10;;;;;;;;;;5024964;28;20299;-78
2024/02/23 00:39:37;;;;;;;0.10;0.00;;;;;;;;;;5028865;28;20041;-79
2024/02/23 00:42:03;;;;;;;0.00;0.00;;;;;;;;;;5028475;28;20022;-78
2024/02/23 00:44:29;;;;;;;0.10;0.10;;;;;;;;;;5020967;28;20022;-78
2024/02/23 00:46:58;;;;;;;0.05;0.00;;;;;;;;;;5019790;28;20033;-78
2024/02/23 00:49:24;;;;;;;0.20;0.00;;;;;;;;;;5038874;28;20057;-79
2024/02/23 00:51:50;;;;;;;0.00;0.00;;;;;;;;;;5027304;28;20091;-78
2024/02/23 00:54:16;;;;;;;0.00;0.00;;;;;;;;;;5022794;28;20061;-78
2024/02/23 00:56:42;;;;;;;0.55;0.10;;;;;;;;;;5024881;28;20052;-78
2024/02/23 00:59:08;;;;;;;0.95;0.00;;;;;;;;;;5024608;28;20022;-78
2024/02/23 01:01:35;;;;;;;0.05;0.00;;;;;;;;;;5043225;28;20045;-77
2024/02/23 01:04:01;;;;;;;0.00;0.00;;;;;;;;;;5028206;28;20030;-77
2024/02/23 01:06:28;;;;;;;0.55;0.10;;;;;;;;;;5026013;28;20029;-78
2024/02/23 01:08:54;;;;;;;0.13;0.10;;;;;;;;;;5023829;28;20026;-78
2024/02/23 01:11:20;;;;;;;0.20;0.20;;;;;;;;;;5023233;28;20030;-78
2024/02/23 01:13:46;;;;;;;0.30;0.15;;;;;;;;;;5039306;28;20022;-78
2024/02/23 01:16:12;;;;;;;0.20;0.00;;;;;;;;;;5025171;28;20028;-77
2024/02/23 01:18:38;;;;;;;0.20;0.03;;;;;;;;;;5029513;28;20140;-78
2024/02/23 01:21:04;;;;;;;0.17;0.10;;;;;;;;;;5023261;28;20045;-78
2024/02/23 01:23:30;;;;;;;0.20;0.10;;;;;;;;;;5022454;28;20100;-78
2024/02/23 01:25:58;;;;;;;0.70;0.20;;;;;;;;;;5027161;28;20040;-79
2024/02/23 01:28:24;;;;;;;2.28;0.00;;;;;;;;;;5015297;28;20038;-79
2024/02/23 01:30:50;;;;;;;0.30;0.10;;;;;;;;;;5026664;28;20081;-79
2024/02/23 01:33:16;;;;;;;0.00;0.00;;;;;;;;;;5019837;28;20034;-79
2024/02/23 01:35:42;;;;;;;0.20;0.00;;;;;;;;;;5020947;28;20029;-79
2024/02/23 01:38:09;;;;;;;0.22;0.03;;;;;;;;;;5020416;28;20026;-79
2024/02/23 01:40:35;;;;;;;0.10;0.08;;;;;;;;;;5018947;28;20115;-78
2024/02/23 01:43:04;;;;;;;0.03;0.00;;;;;;;;;;5019436;28;20044;-79
2024/02/23 01:45:31;;;;;;;0.75;0.10;;;;;;;;;;5011555;28;20536;-79
2024/02/23 01:47:57;;;;;;;0.35;0.10;;;;;;;;;;5019918;28;20068;-79
2024/02/23 01:50:24;;;;;;;0.10;0.10;;;;;;;;;;5020036;28;20093;-77
2024/02/23 01:52:52;;;;;;;0.10;0.10;;;;;;;;;;5020076;28;20041;-78
2024/02/23 01:55:19;;;;;;;0.35;0.17;;;;;;;;;;5019817;28;20018;-78
2024/02/23 01:57:46;;;;;;;0.03;0.03;;;;;;;;;;5019907;28;20022;-78
2024/02/23 02:00:13;;;;;;;0.28;0.08;;;;;;;;;;5019727;28;20105;-79
2024/02/23 02:02:41;;;;;;;0.05;0.05;;;;;;;;;;5032297;28;20022;-79
2024/02/23 02:05:07;;;;;;;0.10;0.00;;;;;;;;;;5016693;28;20034;-79
2024/02/23 02:07:33;;;;;;;0.00;0.00;;;;;;;;;;5002302;28;20026;-78
2024/02/23 02:10:00;;;;;;;0.00;0.00;;;;;;;;;;5024547;28;20026;-78
2024/02/23 02:12:29;;;;;;;0.10;0.10;;;;;;;;;;5012835;28;20101;-78
2024/02/23 02:15:00;;;;;;;0.65;0.00;;;;;;;;;;5037744;28;20022;-77
2024/02/23 02:17:26;;;;;;;0.00;0.00;;;;;;;;;;5035588;28;20088;-79
2024/02/23 02:19:53;;;;;;;0.05;0.05;;;;;;;;;;5032016;28;20027;-79
2024/02/23 02:22:19;;;;;;;0.00;0.00;;;;;;;;;;5019549;28;20417;-79
2024/02/23 02:24:47;;;;;;;0.32;0.00;;;;;;;;;;5024144;28;20037;-78
2024/02/23 02:27:14;;;;;;;1.15;0.10;;;;;;;;;;5026412;28;20481;-79
2024/02/23 02:29:40;;;;;;;0.00;0.00;;;;;;;;;;5020898;28;20049;-79
2024/02/23 02:32:07;;;;;;;0.30;0.00;;;;;;;;;;5023014;28;20050;-79
2024/02/23 02:34:33;;;;;;;0.00;0.00;;;;;;;;;;5035457;28;20022;-79
2024/02/23 02:36:59;;;;;;;0.00;0.00;;;;;;;;;;5020750;28;20097;-79
2024/02/23 02:39:25;;;;;;;0.00;0.00;;;;;;;;;;5028812;28;20054;-78
2024/02/23 02:41:51;;;;;;;0.10;0.10;;;;;;;;;;5045167;28;20029;-79
2024/02/23 02:44:17;;;;;;;0.00;0.00;;;;;;;;;;5027327;28;20030;-78
2024/02/23 02:46:43;;;;;;;0.00;0.00;;;;;;;;;;5025605;28;20045;-78
2024/02/23 02:49:09;;;;;;;0.00;0.00;;;;;;;;;;5028363;28;20030;-78
2024/02/23 02:51:35;;;;;;;0.13;0.10;;;;;;;;;;5026065;28;20030;-78
2024/02/23 02:54:01;;;;;;;0.00;0.00;;;;;;;;;;5026330;28;20018;-78
2024/02/23 02:56:27;;;;;;;0.00;0.00;;;;;;;;;;5027068;28;20104;-79
2024/02/23 02:58:53;;;;;;;0.00;0.00;;;;;;;;;;5015771;28;20492;-78
2024/02/23 03:01:19;;;;;;;0.00;0.00;;;;;;;;;;5011511;28;20030;-79
2024/02/23 03:03:45;;;;;;;0.00;0.00;;;;;;;;;;5039602;28;20030;-79
2024/02/23 03:06:11;;;;;;;0.00;0.00;;;;;;;;;;5035822;28;20094;-78
2024/02/23 03:08:37;;;;;;;0.32;0.00;;;;;;;;;;5016644;28;20025;-79
2024/02/23 03:11:04;;;;;;;0.20;0.00;;;;;;;;;;5044679;28;20030;-79
2024/02/23 03:13:31;;;;;;;0.10;0.10;;;;;;;;;;5035776;28;20457;-78
2024/02/23 03:15:57;;;;;;;0.10;0.00;;;;;;;;;;5027599;28;20131;-79
2024/02/23 03:18:23;;;;;;;0.10;0.03;;;;;;;;;;5022165;28;20018;-78
2024/02/23 03:20:49;;;;;;;0.10;0.10;;;;;;;;;;5023075;28;20037;-79
2024/02/23 03:23:15;;;;;;;1.55;0.08;;;;;;;;;;5027360;28;20034;-79
2024/02/23 03:25:42;;;;;;;0.10;0.10;;;;;;;;;;5059240;28;20075;-79
2024/02/23 03:28:08;;;;;;;0.20;0.00;;;;;;;;;;5047322;28;20085;-79
2024/02/23 03:30:34;;;;;;;0.22;0.10;;;;;;;;;;5019058;28;20478;-79
2024/02/23 03:33:00;;;;;;;0.63;0.03;;;;;;;;;;5037103;28;20047;-77
2024/02/23 03:35:26;;;;;;;0.82;0.20;;;;;;;;;;5025313;28;20065;-79
2024/02/23 03:37:52;;;;;;;0.63;0.57;;;;;;;;;;5024443;28;20087;-77
2024/02/23 03:40:19;;;;;;;0.10;0.03;;;;;;;;;;5042227;28;20130;-78
2024/02/23 03:42:45;;;;;;;0.10;0.10;;;;;;;;;;5027081;28;20028;-78
2024/02/23 03:45:11;;;;;;;0.28;0.10;;;;;;;;;;5027117;28;20081;-78
2024/02/23 03:47:37;;;;;;;0.10;0.10;;;;;;;;;;5033089;28;20056;-79
2024/02/23 03:50:04;;;;;;;0.73;0.10;;;;;;;;;;5039896;28;20069;-78
2024/02/23 03:52:30;;;;;;;0.00;0.00;;;;;;;;;;5039408;28;20040;-77
2024/02/23 03:54:56;;;;;;;0.47;0.10;;;;;;;;;;5039093;28;20037;-77
2024/02/23 03:57:22;;;;;;;0.00;0.00;;;;;;;;;;5035706;28;20026;-78
2024/02/23 03:59:54;;;;;;;0.10;0.10;;;;;;;;;;5032970;28;20025;-78
2024/02/23 04:02:20;;;;;;;;;;;;;;;;;;5039618;28;20017;-78
2024/02/23 04:04:46;;;;;;;0.13;0.10;;;;;;;;;;5039330;28;19940;-77
2024/02/23 04:07:13;;;;;;;0.00;0.00;;;;;;;;;;5054927;28;20028;-78
2024/02/23 04:09:39;;;;;;;0.43;0.00;;;;;;;;;;5038703;28;20064;-78
2024/02/23 04:12:07;;;;;;;0.63;0.10;;;;;;;;;;5035340;28;20042;-77
2024/02/23 04:14:36;;;;;;;0.10;0.00;;;;;;;;;;5028656;28;20469;-81
2024/02/23 04:17:02;;;;;;;1.27;0.10;;;;;;;;;;5061149;28;20024;-79
2024/02/23 04:19:28;;;;;;;0.05;0.00;;;;;;;;;;5036840;28;20033;-77
2024/02/23 04:21:55;;;;;;;0.00;0.00;;;;;;;;;;5032231;28;20101;-79
2024/02/23 04:24:21;;;;;;;0.00;0.00;;;;;;;;;;5031138;28;20105;-79
2024/02/23 04:26:47;;;;;;;0.08;0.08;;;;;;;;;;5024667;28;20088;-78
2024/02/23 04:29:13;;;;;;;2.00;0.10;;;;;;;;;;5016915;28;20468;-79
2024/02/23 04:31:39;;;;;;;0.10;0.10;;;;;;;;;;5020271;28;20041;-78
2024/02/23 04:34:05;;;;;;;0.85;0.10;;;;;;;;;;5030980;28;20066;-78
2024/02/23 04:36:31;;;;;;;0.43;0.10;;;;;;;;;;5030096;28;20497;-79
2024/02/23 04:38:57;;;;;;;0.00;0.00;;;;;;;;;;5027201;28;20041;-78
2024/02/23 04:41:24;;;;;;;1.13;0.10;;;;;;;;;;5032164;28;20068;-79
2024/02/23 04:43:51;;;;;;;0.08;0.08;;;;;;;;;;5032882;28;20053;-79
2024/02/23 04:46:18;;;;;;;0.00;0.00;;;;;;;;;;5051762;28;20028;-77
2024/02/23 04:48:44;;;;;;;0.40;0.10;;;;;;;;;;5039183;28;20089;-78
2024/02/23 04:51:10;;;;;;;0.10;0.10;;;;;;;;;;5035992;28;20061;-78
2024/02/23 04:53:38;;;;;;;0.70;0.10;;;;;;;;;;5017374;28;20048;-79
2024/02/23 04:56:04;;;;;;;0.88;0.10;;;;;;;;;;5037534;28;20025;-81
2024/02/23 04:58:30;;;;;;;0.10;0.10;;;;;;;;;;5038294;28;20044;-80
2024/02/23 05:00:56;;;;;;;0.30;0.20;;;;;;;;;;5038513;28;20057;-79
2024/02/23 05:03:22;;;;;;;0.03;0.03;;;;;;;;;;5038342;28;20021;-82
2024/02/23 05:05:53;;;;;;;1.15;0.10;;;;;;;;;;5037891;28;20009;-79
2024/02/23 05:08:20;;;;;;;1.75;0.10;;;;;;;;;;5037328;28;20046;-79
2024/02/23 05:10:47;;;;;;;0.20;0.17;;;;;;;;;;5037591;28;20085;-79
2024/02/23 05:13:13;;;;;;;0.08;0.00;;;;;;;;;;5037199;28;20117;-81
2024/02/23 05:15:39;;;;;;;0.00;0.00;;;;;;;;;;5045545;28;20030;-79
2024/02/23 05:18:06;;;;;;;0.13;0.00;;;;;;;;;;5052064;28;20109;-79
2024/02/23 05:20:32;;;;;;;0.00;0.00;;;;;;;;;;5033119;28;20085;-79
2024/02/23 05:22:58;;;;;;;0.05;0.00;;;;;;;;;;5034247;28;20045;-80
2024/02/23 05:25:25;;;;;;;0.00;0.00;;;;;;;;;;5027248;28;20481;-79
2024/02/23 05:27:52;;;;;;;0.00;0.00;;;;;;;;;;5016978;28;20109;-81
2024/02/23 05:30:18;;;;;;;0.03;0.00;;;;;;;;;;5011531;28;20510;-80
2024/02/23 05:32:44;;;;;;;0.00;0.00;;;;;;;;;;5020935;28;20045;-80
2024/02/23 05:35:10;;;;;;;0.40;0.10;;;;;;;;;;5032507;28;20026;-81
2024/02/23 05:37:37;;;;;;;0.40;0.00;;;;;;;;;;5054022;28;20026;-80
2024/02/23 05:40:09;;;;;;;0.10;0.10;;;;;;;;;;5029233;28;20030;-81
2024/02/23 05:42:36;;;;;;;0.00;0.00;;;;;;;;;;5045143;28;20093;-79
2024/02/23 05:45:04;;;;;;;0.32;0.00;;;;;;;;;;5024218;28;20025;-80
2024/02/23 05:47:30;;;;;;;0.13;0.00;;;;;;;;;;5027065;28;20041;-81
2024/02/23 05:49:56;;;;;;;0.00;0.00;;;;;;;;;;5027886;28;20034;-81
2024/02/23 05:52:23;;;;;;;0.10;0.10;;;;;;;;;;5022383;28;20041;-80
2024/02/23 05:54:49;;;;;;;0.05;0.00;;;;;;;;;;5030348;28;20504;-79
2024/02/23 05:57:15;;;;;;;0.00;0.00;;;;;;;;;;5028703;28;20076;-80
2024/02/23 05:59:41;;;;;;;0.10;0.10;;;;;;;;;;5011129;28;20018;-80
2024/02/23 06:02:07;;;;;;;0.05;0.05;;;;;;;;;;5022313;28;20081;-80
2024/02/23 06:04:33;;;;;;;0.15;0.15;;;;;;;;;;5029920;28;20026;-81
2024/02/23 06:06:59;;;;;;;0.65;0.43;;;;;;;;;;5022622;28;20485;-80
2024/02/23 06:09:25;;;;;;;0.60;0.60;;;;;;;;;;5022376;28;20034;-79
2024/02/23 06:11:51;;;;;;;0.95;0.60;;;;;;;;;;5022130;28;20113;-80
2024/02/23 06:14:17;;;;;;;1.02;0.70;;;;;;;;;;5019081;28;20096;-80
2024/02/23 06:16:43;;;;;;;0.60;0.60;;;;;;;;;;5022744;28;20030;-79
2024/02/23 06:19:10;;;;;;;1.33;1.00;;;;;;;;;;5021234;28;20097;-80
2024/02/23 06:21:36;;;;;;;0.40;0.40;;;;;;;;;;5022235;28;20492;-80
2024/02/23 06:24:02;;;;;;;0.40;0.40;;;;;;;;;;5022838;28;20409;-80
2024/02/23 06:26:29;;;;;;;0.40;0.40;;;;;;;;;;5022653;28;20374;-79
2024/02/23 06:28:55;;;;;;;0.65;0.25;;;;;;;;;;5015521;28;20026;-79
2024/02/23 06:31:21;;;;;;;0.30;0.25;;;;;;;;;;5011364;28;20033;-80
2024/02/23 06:33:49;;;;;;;0.88;0.20;;;;;;;;;;5021894;28;20026;-79
2024/02/23 06:36:15;;;;;;;0.30;0.28;;;;;;;;;;5040368;28;20022;-80
2024/02/23 06:38:41;;;;;;;0.20;0.20;;;;;;;;;;5039353;28;20404;-79
2024/02/23 06:41:10;;;;;;;0.10;0.10;;;;;;;;;;5018389;28;20026;-79
2024/02/23 06:43:36;;;;;;;0.20;0.20;;;;;;;;;;5037845;28;20033;-79
2024/02/23 06:46:09;;;;;;;0.32;0.10;;;;;;;;;;5044225;28;20098;-79
2024/02/23 06:48:36;;;;;;;0.17;0.17;;;;;;;;;;5043378;28;20034;-80
2024/02/23 06:51:03;;;;;;;0.30;0.30;;;;;;;;;;5031577;28;20036;-80
2024/02/23 06:53:29;;;;;;;0.73;0.30;;;;;;;;;;5030257;28;20033;-80
2024/02/23 06:55:55;;;;;;;0.28;0.28;;;;;;;;;;5033649;28;20034;-80
2024/02/23 06:58:21;;;;;;;1.15;0.30;;;;;;;;;;5035871;28;20032;-80
2024/02/23 07:00:47;;;;;;;0.25;0.17;;;;;;;;;;5023602;28;20026;-80
2024/02/23 07:03:14;;;;;;;0.32;0.10;;;;;;;;;;5052793;28;20116;-81
2024/02/23 07:05:45;;;;;;;0.22;0.10;;;;;;;;;;5045428;28;20026;-80
2024/02/23 07:08:12;;;;;;;0.17;0.17;;;;;;;;;;5042238;28;20017;-81
2024/02/23 07:10:38;;;;;;;0.55;0.03;;;;;;;;;;5047873;28;20128;-80
2024/02/23 07:13:04;;;;;;;0.13;0.05;;;;;;;;;;5034844;28;20026;-80
2024/02/23 07:15:32;;;;;;;2.58;0.40;;;;;;;;;;5052720;28;20025;-81
2024/02/23 07:17:58;;;;;;;0.43;0.20;;;;;;;;;;5034322;28;20002;-79
2024/02/23 07:20:24;;;;;;;2.03;0.35;;;;;;;;;;5033542;28;20026;-80
2024/02/23 07:22:50;;;;;;;0.63;0.22;;;;;;;;;;5043909;28;20026;-80
2024/02/23 07:25:17;;;;;;;0.88;0.13;;;;;;;;;;5024663;28;20041;-81
2024/02/23 07:27:43;;;;;;;0.20;0.20;;;;;;;;;;5017143;28;20210;-82
2024/02/23 07:30:10;;;;;;;0.20;0.20;;;;;;;;;;5004742;28;20030;-81
2024/02/23 07:32:36;;;;;;;0.30;0.20;;;;;;;;;;5027177;28;20037;-81
2024/02/23 07:35:03;;;;;;;0.88;0.40;;;;;;;;;;5029474;28;20082;-81
2024/02/23 07:37:29;;;;;;;0.20;0.20;;;;;;;;;;5024936;28;20021;-81
2024/02/23 07:39:56;;;;;;;0.35;0.17;;;;;;;;;;5025330;28;20037;-80
2024/02/23 07:42:22;;;;;;;0.35;0.20;;;;;;;;;;5022086;28;20040;-79
2024/02/23 07:44:48;;;;;;;0.10;0.10;;;;;;;;;;5019083;28;20073;-79
2024/02/23 07:47:14;;;;;;;0.10;0.10;;;;;;;;;;5030955;28;20108;-80
2024/02/23 07:49:43;;;;;;;0.10;0.10;;;;;;;;;;5034776;28;20034;-79
2024/02/23 07:52:09;;;;;;;0.38;0.10;;;;;;;;;;5016522;28;20417;-80
2024/02/23 07:54:35;;;;;;;1.00;0.30;;;;;;;;;;5019657;28;20076;-79
2024/02/23 07:57:01;;;;;;;0.08;0.00;;;;;;;;;;5021571;28;20060;-80
2024/02/23 07:59:28;;;;;;;0.10;0.10;;;;;;;;;;5011845;28;20022;-80
2024/02/23 08:01:55;;;;;;;0.25;0.10;;;;;;;;;;5022392;28;20026;-80
2024/02/23 08:04:22;;;;;;;0.10;0.10;;;;;;;;;;5022557;28;20022;-80
2024/02/23 08:06:48;;;;;;;0.13;0.13;;;;;;;;;;5039106;28;20052;-79
2024/02/23 08:09:14;;;;;;;0.13;0.10;;;;;;;;;;5021079;28;20026;-79
2024/02/23 08:11:40;;;;;;;0.40;0.20;;;;;;;;;;5022662;28;20030;-80
2024/02/23 08:14:06;;;;;;;0.32;0.20;;;;;;;;;;5045791;28;20041;-82
2024/02/23 08:16:33;;;;;;;0.38;0.30;;;;;;;;;;5038940;28;20042;-81
2024/02/23 08:18:59;;;;;;;0.85;0.13;;;;;;;;;;5024647;28;20026;-81
2024/02/23 08:21:28;;;;;;;0.20;0.10;;;;;;;;;;5027251;28;20085;-81
2024/02/23 08:23:55;;;;;;;0.30;0.30;;;;;;;;;;5028351;28;20556;-81
2024/02/23 08:26:21;;;;;;;1.00;0.30;;;;;;;;;;5040770;28;20287;-80
2024/02/23 08:28:47;;;;;;;0.20;0.20;;;;;;;;;;5046169;28;20037;-81
2024/02/23 08:31:13;;;;;;;0.20;0.20;;;;;;;;;;5030460;28;20034;-81
2024/02/23 08:33:39;;;;;;;0.10;0.10;;;;;;;;;;5040908;28;20029;-79
2024/02/23 08:36:05;;;;;;;0.50;0.20;;;;;;;;;;5043876;28;20201;-81
2024/02/23 08:38:32;;;;;;;0.20;0.20;;;;;;;;;;5016324;28;20026;-80
2024/02/23 08:40:58;;;;;;;0.20;0.20;;;;;;;;;;5028462;28;20034;-80
2024/02/23 08:43:24;;;;;;;0.57;0.13;;;;;;;;;;5019615;28;20026;-80
2024/02/23 08:45:51;;;;;;;1.30;0.20;;;;;;;;;;5043343;28;20092;-81
2024/02/23 08:48:18;;;;;;;0.47;0.10;;;;;;;;;;5031481;28;20025;-81
2024/02/23 08:50:44;;;;;;;0.40;0.20;;;;;;;;;;5042173;28;20507;-80
2024/02/23 08:53:10;;;;;;;0.55;0.30;;;;;;;;;;5027450;28;20033;-81
2024/02/23 08:55:36;;;;;;;0.55;0.20;;;;;;;;;;5034626;28;20056;-81
2024/02/23 08:58:02;;;;;;;0.60;0.35;;;;;;;;;;5037782;28;20358;-80
2024/02/23 09:00:28;;;;;;;0.10;0.10;;;;;;;;;;5031238;28;20030;-80
2024/02/23 09:02:54;;;;;;;0.52;0.30;;;;;;;;;;5033959;28;20029;-79
2024/02/23 09:05:21;;;;;;;1.20;0.17;;;;;;;;;;5030961;28;20030;-80
2024/02/23 09:07:47;;;;;;;0.28;0.20;;;;;;;;;;5041474;28;20049;-81
2024/02/23 09:10:13;;;;;;;0.80;0.40;;;;;;;;;;5024689;28;20507;-80
2024/02/23 09:12:39;;;;;;;1.95;0.20;;;;;;;;;;5026028;28;20069;-80
2024/02/23 09:15:05;;;;;;;0.70;0.28;;;;;;;;;;5033891;28;20026;-81
2024/02/23 09:17:32;;;;;;;4.07;0.68;;;;;;;;;;5028645;28;20028;-80
2024/02/23 09:19:58;;;;;;;4.45;0.93;;;;;;;;;;5029863;28;20022;-79
2024/02/23 09:22:24;;;;;;;5.63;0.90;;;;;;;;;;5033464;28;20053;-79
2024/02/23 09:24:50;;;;;;;1.63;0.90;;;;;;;;;;5032989;28;20026;-79
2024/02/23 09:27:16;;;;;;;1.80;0.77;;;;;;;;;;5030962;28;20121;-80
2024/02/23 09:29:42;;;;;;;1.58;0.73;;;;;;;;;;5029651;28;20030;-80
2024/02/23 09:32:08;;;;;;;1.85;0.70;;;;;;;;;;5036506;28;20041;-79
2024/02/23 09:34:34;;;;;;;3.15;0.70;;;;;;;;;;5023001;28;20057;-80
2024/02/23 09:37:01;;;;;;;0.90;0.40;;;;;;;;;;5027158;28;20022;-78
2024/02/23 09:39:29;;;;;;;1.55;0.52;;;;;;;;;;5052572;28;20029;-80
2024/02/23 09:41:59;;;;;;;0.40;0.40;;;;;;;;;;5048547;28;20032;-80
2024/02/23 09:44:33;;;;;;;2.15;0.38;;;;;;;;;;5028856;28;20014;-80
2024/02/23 09:47:00;;;;;;;0.98;0.25;;;;;;;;;;5051622;28;20017;-81
2024/02/23 09:49:26;;;;;;;1.55;0.30;;;;;;;;;;5035235;28;20026;-80
2024/02/23 09:51:53;;;;;;;0.75;0.32;;;;;;;;;;5030269;28;20042;-79
2024/02/23 09:54:19;;;;;;;1.88;0.40;;;;;;;;;;5035633;28;20034;-80
2024/02/23 09:56:45;;;;;;;1.00;0.30;;;;;;;;;;5040750;28;20030;-79
2024/02/23 09:59:12;;;;;;;0.57;0.20;;;;;;;;;;5015864;28;20029;-80
2024/02/23 10:01:38;;;;;;;0.82;0.30;;;;;;;;;;5012914;28;20093;-81
2024/02/23 10:04:06;;;;;;;0.10;0.10;;;;;;;;;;5026235;28;20025;-83
2024/02/23 10:06:32;;;;;;;0.30;0.22;;;;;;;;;;5055259;28;20477;-81
2024/02/23 10:08:58;;;;;;;0.28;0.20;;;;;;;;;;5025052;28;20496;-80
2024/02/23 10:11:25;;;;;;;0.80;0.50;;;;;;;;;;5034720;28;20030;-81
2024/02/23 10:13:52;;;;;;;1.30;0.50;;;;;;;;;;5040153;28;20106;-81
2024/02/23 10:16:21;;;;;;;1.73;0.35;;;;;;;;;;5040216;28;20061;-80
2024/02/23 10:18:48;;;;;;;0.75;0.15;;;;;;;;;;5027722;28;20026;-81
2024/02/23 10:21:15;;;;;;;0.80;0.30;;;;;;;;;;5010876;28;20086;-80
2024/02/23 10:23:41;;;;;;;0.55;0.22;;;;;;;;;;5019025;28;20030;-80
2024/02/23 10:26:08;;;;;;;0.10;0.10;;;;;;;;;;5019275;28;20030;-79
2024/02/23 10:28:35;;;;;;;0.52;0.30;;;;;;;;;;5033605;28;20109;-81
2024/02/23 10:31:01;;;;;;;0.47;0.32;;;;;;;;;;5020082;28;20018;-81
2024/02/23 10:33:28;;;;;;;1.45;0.20;;;;;;;;;;5022504;28;20080;-80
2024/02/23 10:35:59;;;;;;;0.47;0.10;;;;;;;;;;5017820;28;20069;-79
2024/02/23 10:38:28;;;;;;;0.43;0.20;;;;;;;;;;5018195;28;20030;-80
2024/02/23 10:40:57;;;;;;;0.15;0.10;;;;;;;;;;5019289;28;20021;-81
2024/02/23 10:43:28;;;;;;;0.30;0.10;;;;;;;;;;5018921;28;20110;-81
2024/02/23 10:45:54;;;;;;;0.20;0.10;;;;;;;;;;5020208;28;20079;-81
2024/02/23 10:48:21;;;;;;;0.08;0.00;;;;;;;;;;5028894;28;20518;-81
2024/02/23 10:50:47;;;;;;;0.35;0.10;;;;;;;;;;5019215;28;20029;-80
2024/02/23 10:53:14;;;;;;;0.30;0.20;;;;;;;;;;5023238;28;20025;-81
2024/02/23 10:55:40;;;;;;;0.43;0.30;;;;;;;;;;5023291;28;20018;-80
2024/02/23 10:58:11;;;;;;;0.93;0.30;;;;;;;;;;5022368;28;20036;-81
2024/02/23 11:00:38;;;;;;;0.25;0.15;;;;;;;;;;5023991;28;20048;-82
2024/02/23 11:03:06;;;;;;;0.30;0.30;;;;;;;;;;5034081;28;20033;-81
2024/02/23 11:05:33;;;;;;;0.35;0.22;;;;;;;;;;5027952;28;20018;-81
2024/02/23 11:07:59;;;;;;;0.38;0.20;;;;;;;;;;5031755;28;20045;-79
2024/02/23 11:10:28;;;;;;;0.45;0.20;;;;;;;;;;5039909;28;20018;-82
2024/02/23 11:13:08;;;;;;;0.30;0.20;;;;;;;;;;5028176;28;20034;-81
2024/02/23 11:15:40;;;;;;;0.85;0.20;;;;;;;;;;5045935;28;20026;-80
2024/02/23 11:18:22;;;;;;;0.85;0.10;;;;;;;;;;5036669;28;20057;-81
2024/02/23 11:20:54;;;;;;;0.60;0.28;;;;;;;;;;5026285;28;20030;-81
2024/02/23 11:23:21;;;;;;;1.10;0.28;;;;;;;;;;5026486;28;20067;-81
2024/02/23 11:26:21;;;;;;;1.00;0.30;;;;;;;;;;5026147;28;20036;-81
2024/02/23 11:28:53;;;;;;;0.47;0.30;;;;;;;;;;4990394;28;20109;-81
2024/02/23 11:31:26;;;;;;;0.15;0.15;;;;;;;;;;5022805;28;20072;-81
2024/02/23 11:33:55;;;;;;;0.22;0.20;;;;;;;;;;5011465;28;20083;-81
2024/02/23 11:36:33;;;;;;;0.22;0.20;;;;;;;;;;5027212;28;20021;-79
2024/02/23 11:39:00;;;;;;;0.45;0.30;;;;;;;;;;5024308;28;20025;-81
2024/02/23 11:41:26;;;;;;;0.57;0.30;;;;;;;;;;5039865;28;20030;-82
2024/02/23 11:43:53;;;;;;;2.28;0.22;;;;;;;;;;5029105;28;20074;-80
2024/02/23 11:46:19;;;;;;;1.45;0.20;;;;;;;;;;5032821;28;20112;-80
2024/02/23 11:48:46;;;;;;;4.38;0.63;;;;;;;;;;5011911;28;20064;-80
2024/02/23 11:51:15;;;;;;;0.38;0.20;;;;;;;;;;5015110;28;20033;-81
2024/02/23 11:53:42;;;;;;;0.65;0.57;;;;;;;;;;5022092;28;20058;-81
2024/02/23 11:56:08;;;;;;;0.43;0.20;;;;;;;;;;5019163;28;20040;-80
2024/02/23 11:58:34;;;;;;;0.38;0.20;;;;;;;;;;5019843;28;20030;-80
2024/02/23 12:01:03;;;;;;;0.20;0.15;;;;;;;;;;5023894;28;20069;-80
2024/02/23 12:03:30;;;;;;;0.65;0.38;;;;;;;;;;5038843;28;20307;-82
2024/02/23 12:05:59;;;;;;;0.52;0.25;;;;;;;;;;5015697;28;20065;-81
2024/02/23 12:08:28;;;;;;;0.60;0.17;;;;;;;;;;5023873;28;20077;-80
2024/02/23 12:10:55;;;;;;;0.28;0.10;;;;;;;;;;5027836;28;20026;-81
2024/02/23 12:13:21;;;;;;;0.28;0.10;;;;;;;;;;5024458;28;20501;-80
2024/02/23 12:15:53;;;;;;;0.25;0.15;;;;;;;;;;5017704;28;20026;-81
2024/02/23 12:18:20;;;;;;;1.00;0.30;;;;;;;;;;5022092;28;20093;-81
2024/02/23 12:20:49;;;;;;;0.28;0.28;;;;;;;;;;5023742;28;20026;-81
2024/02/23 12:23:16;;;;;;;0.20;0.10;;;;;;;;;;5018113;28;20079;-80
2024/02/23 12:25:53;;;;;;;0.20;0.10;;;;;;;;;;5031484;28;20022;-80
2024/02/23 12:28:19;;;;;;;0.30;0.30;;;;;;;;;;5031832;28;20030;-82
2024/02/23 12:30:46;;;;;;;0.63;0.22;;;;;;;;;;5020890;28;20099;-80
2024/02/23 12:33:16;;;;;;;0.35;0.17;;;;;;;;;;5030735;28;20405;-81
2024/02/23 12:35:42;;;;;;;0.32;0.20;;;;;;;;;;5025892;28;20022;-80
2024/02/23 12:38:09;;;;;;;0.25;0.25;;;;;;;;;;5021405;28;20077;-81
2024/02/23 12:40:35;;;;;;;0.35;0.10;;;;;;;;;;5025568;28;20053;-79
2024/02/23 12:43:01;;;;;;;0.10;0.10;;;;;;;;;;5042888;28;20041;-81
2024/02/23 12:45:27;;;;;;;0.38;0.10;;;;;;;;;;5027884;28;20093;-80
2024/02/23 12:47:53;;;;;;;0.45;0.10;;;;;;;;;;5026853;28;20030;-79
2024/02/23 12:50:19;;;;;;;0.52;0.20;;;;;;;;;;5026601;28;20026;-80
2024/02/23 12:52:46;;;;;;;0.13;0.13;;;;;;;;;;5025070;28;20092;-79
2024/02/23 12:55:12;;;;;;;0.20;0.10;;;;;;;;;;5021882;28;20041;-80
2024/02/23 12:57:38;;;;;;;0.73;0.28;;;;;;;;;;5023251;28;20026;-81
2024/02/23 13:00:05;;;;;;;0.43;0.15;;;;;;;;;;5026941;28;20113;-79
2024/02/23 13:02:31;;;;;;;1.52;0.10;;;;;;;;;;5048022;28;20037;-80
2024/02/23 13:04:57;;;;;;;0.00;0.00;;;;;;;;;;5027116;28;20048;-80
2024/02/23 13:07:23;;;;;;;0.10;0.10;;;;;;;;;;5031396;28;20030;-79
2024/02/23 13:09:49;;;;;;;1.08;0.20;;;;;;;;;;5022103;28;20041;-81
2024/02/23 13:12:15;;;;;;;0.75;0.10;;;;;;;;;;5039190;28;20037;-80
2024/02/23 13:14:41;;;;;;;0.38;0.25;;;;;;;;;;5024693;28;20005;-80
2024/02/23 13:17:07;;;;;;;0.10;0.10;;;;;;;;;;5021698;28;20028;-81
2024/02/23 13:19:34;;;;;;;0.22;0.10;;;;;;;;;;5020925;28;20029;-79
2024/02/23 13:22:00;;;;;;;0.55;0.22;;;;;;;;;;5029432;28;20036;-81
2024/02/23 13:24:27;;;;;;;0.13;0.10;;;;;;;;;;5036468;28;20504;-81
2024/02/23 13:26:53;;;;;;;0.20;0.20;;;;;;;;;;5023470;28;20481;-81
2024/02/23 13:29:20;;;;;;;0.30;0.20;;;;;;;;;;5014210;28;20040;-80
2024/02/23 13:31:46;;;;;;;0.30;0.10;;;;;;;;;;5027788;28;20022;-80
2024/02/23 13:34:15;;;;;;;0.15;0.00;;;;;;;;;;5031995;28;20022;-79
2024/02/23 13:36:41;;;;;;;0.43;0.20;;;;;;;;;;5024447;28;20017;-80
2024/02/23 13:39:08;;;;;;;0.73;0.50;;;;;;;;;;5034615;28;20038;-81
2024/02/23 13:41:34;;;;;;;0.80;0.20;;;;;;;;;;5022209;28;20432;-81
2024/02/23 13:44:01;;;;;;;0.10;0.10;;;;;;;;;;5032670;28;20022;-80
2024/02/23 13:46:27;;;;;;;0.20;0.20;;;;;;;;;;5025185;28;20085;-80
2024/02/23 13:49:03;;;;;;;0.88;0.20;;;;;;;;;;5017753;28;20049;-81
2024/02/23 13:51:29;;;;;;;0.25;0.10;;;;;;;;;;5009845;28;20129;-81
2024/02/23 13:53:55;;;;;;;0.00;0.00;;;;;;;;;;5018935;28;20018;-82
2024/02/23 13:56:21;;;;;;;0.22;0.00;;;;;;;;;;5019546;28;20030;-80
2024/02/23 13:58:48;;;;;;;0.00;0.00;;;;;;;;;;5018088;28;20037;-80
2024/02/23 14:01:15;;;;;;;0.15;0.10;;;;;;;;;;5019869;28;20033;-81
2024/02/23 14:03:41;;;;;;;0.35;0.10;;;;;;;;;;5019224;28;20026;-80
2024/02/23 14:06:07;;;;;;;0.52;0.20;;;;;;;;;;5038877;28;20038;-82
2024/02/23 14:08:38;;;;;;;0.15;0.15;;;;;;;;;;5015979;28;20097;-82
2024/02/23 14:11:05;;;;;;;0.13;0.05;;;;;;;;;;5014139;28;20037;-81
2024/02/23 14:13:32;;;;;;;0.40;0.10;;;;;;;;;;5018515;28;20025;-81
2024/02/23 14:15:58;;;;;;;0.30;0.10;;;;;;;;;;5018893;28;20028;-83
2024/02/23 14:18:25;;;;;;;0.10;0.10;;;;;;;;;;5018255;28;20064;-79
2024/02/23 14:20:52;;;;;;;0.32;0.20;;;;;;;;;;5030580;28;20018;-81
2024/02/23 14:23:18;;;;;;;0.20;0.20;;;;;;;;;;5022250;28;20461;-82
2024/02/23 14:25:44;;;;;;;0.20;0.20;;;;;;;;;;5025529;28;20025;-81
2024/02/23 14:28:11;;;;;;;0.15;0.15;;;;;;;;;;5025598;28;20029;-82
2024/02/23 14:30:40;;;;;;;0.25;0.22;;;;;;;;;;5025658;28;20452;-81
2024/02/23 14:33:06;;;;;;;0.40;0.10;;;;;;;;;;5035112;28;20018;-83
2024/02/23 14:35:32;;;;;;;0.57;0.30;;;;;;;;;;5021004;28;20026;-80
2024/02/23 14:37:58;;;;;;;0.13;0.10;;;;;;;;;;5046373;28;20034;-81
2024/02/23 14:40:24;;;;;;;2.63;0.10;;;;;;;;;;5021082;28;20026;-79